sensor_id;sensor_type;location;lat;lon;timestamp;temperature;humidity
57709;SHT35;42558;52.388;13.390;2023-01-23T00:01:56;1.61;90.39
57709;SHT35;42558;52.388;13.390;2023-01-23T00:04:25;1.60;90.47
57709;SHT35;42558;52.388;13.390;2023-01-23T00:06:55;1.61;90.47
57709;SHT35;42558;52.388;13.390;2023-01-23T00:09:25;1.66;90.50
57709;SHT35;42558;52.388;13.390;2023-01-23T00:11:55;1.64;90.50
57709;SHT35;42558;52.388;13.390;2023-01-23T00:14:25;1.65;90.50
57709;SHT35;42558;52.388;13.390;2023-01-23T00:16:53;1.64;90.45
57709;SHT35;42558;52.388;13.390;2023-01-23T00:19:22;1.64;90.47
57709;SHT35;42558;52.388;13.390;2023-01-23T00:21:50;1.63;90.50
57709;SHT35;42558;52.388;13.390;2023-01-23T00:24:19;1.63;90.57
57709;SHT35;42558;52.388;13.390;2023-01-23T00:26:47;1.61;90.63
57709;SHT35;42558;52.388;13.390;2023-01-23T00:29:15;1.60;90.70
57709;SHT35;42558;52.388;13.390;2023-01-23T00:31:44;1.59;90.70
57709;SHT35;42558;52.388;13.390;2023-01-23T00:34:13;1.57;90.76
57709;SHT35;42558;52.388;13.390;2023-01-23T00:36:41;1.59;90.79
57709;SHT35;42558;52.388;13.390;2023-01-23T00:39:15;1.61;90.80
57709;SHT35;42558;52.388;13.390;2023-01-23T00:41:48;1.62;90.80
57709;SHT35;42558;52.388;13.390;2023-01-23T00:44:18;1.64;90.81
57709;SHT35;42558;52.388;13.390;2023-01-23T00:46:49;1.60;90.78
57709;SHT35;42558;52.388;13.390;2023-01-23T00:49:18;1.61;90.84
57709;SHT35;42558;52.388;13.390;2023-01-23T00:51:50;1.64;90.87
57709;SHT35;42558;52.388;13.390;2023-01-23T00:54:21;1.65;90.80
57709;SHT35;42558;52.388;13.390;2023-01-23T00:56:54;1.66;90.81
57709;SHT35;42558;52.388;13.390;2023-01-23T00:59:24;1.65;90.80
57709;SHT35;42558;52.388;13.390;2023-01-23T01:01:54;1.64;90.80
57709;SHT35;42558;52.388;13.390;2023-01-23T01:04:24;1.64;90.85
57709;SHT35;42558;52.388;13.390;2023-01-23T01:06:54;1.62;90.85
57709;SHT35;42558;52.388;13.390;2023-01-23T01:09:22;1.65;90.88
57709;SHT35;42558;52.388;13.390;2023-01-23T01:11:50;1.65;90.83
57709;SHT35;42558;52.388;13.390;2023-01-23T01:14:19;1.61;90.80
57709;SHT35;42558;52.388;13.390;2023-01-23T01:16:47;1.60;90.91
57709;SHT35;42558;52.388;13.390;2023-01-23T01:19:16;1.62;90.91
57709;SHT35;42558;52.388;13.390;2023-01-23T01:21:44;1.62;90.91
57709;SHT35;42558;52.388;13.390;2023-01-23T01:24:13;1.62;90.90
57709;SHT35;42558;52.388;13.390;2023-01-23T01:26:41;1.62;90.87
57709;SHT35;42558;52.388;13.390;2023-01-23T01:29:10;1.60;90.81
57709;SHT35;42558;52.388;13.390;2023-01-23T01:31:38;1.62;90.85
57709;SHT35;42558;52.388;13.390;2023-01-23T01:34:07;1.67;90.89
57709;SHT35;42558;52.388;13.390;2023-01-23T01:36:35;1.64;90.80
57709;SHT35;42558;52.388;13.390;2023-01-23T01:39:03;1.63;90.86
57709;SHT35;42558;52.388;13.390;2023-01-23T01:41:32;1.68;90.90
57709;SHT35;42558;52.388;13.390;2023-01-23T01:44:00;1.67;90.90
57709;SHT35;42558;52.388;13.390;2023-01-23T01:46:29;1.68;90.90
57709;SHT35;42558;52.388;13.390;2023-01-23T01:54:34;1.64;90.94
57709;SHT35;42558;52.388;13.390;2023-01-23T01:57:15;1.65;90.90
57709;SHT35;42558;52.388;13.390;2023-01-23T01:59:58;1.63;90.87
57709;SHT35;42558;52.388;13.390;2023-01-23T02:02:42;1.64;90.88
57709;SHT35;42558;52.388;13.390;2023-01-23T02:05:21;1.57;90.78
57709;SHT35;42558;52.388;13.390;2023-01-23T02:08:04;1.60;90.80
57709;SHT35;42558;52.388;13.390;2023-01-23T02:10:42;1.63;90.81
57709;SHT35;42558;52.388;13.390;2023-01-23T02:13:33;1.65;90.81
57709;SHT35;42558;52.388;13.390;2023-01-23T02:16:08;1.68;90.80
57709;SHT35;42558;52.388;13.390;2023-01-23T02:18:40;1.65;90.71
57709;SHT35;42558;52.388;13.390;2023-01-23T02:21:20;1.62;90.67
57709;SHT35;42558;52.388;13.390;2023-01-23T02:27:00;1.66;90.68
57709;SHT35;42558;52.388;13.390;2023-01-23T02:29:41;1.64;90.63
57709;SHT35;42558;52.388;13.390;2023-01-23T02:32:13;1.64;90.61
57709;SHT35;42558;52.388;13.390;2023-01-23T02:34:43;1.62;90.59
57709;SHT35;42558;52.388;13.390;2023-01-23T02:37:14;1.60;90.58
57709;SHT35;42558;52.388;13.390;2023-01-23T02:39:44;1.59;90.55
57709;SHT35;42558;52.388;13.390;2023-01-23T02:42:17;1.60;90.58
57709;SHT35;42558;52.388;13.390;2023-01-23T02:44:48;1.59;90.52
57709;SHT35;42558;52.388;13.390;2023-01-23T02:47:18;1.63;90.62
57709;SHT35;42558;52.388;13.390;2023-01-23T02:49:48;1.62;90.62
57709;SHT35;42558;52.388;13.390;2023-01-23T02:52:18;1.63;90.70
57709;SHT35;42558;52.388;13.390;2023-01-23T02:54:48;1.61;90.66
57709;SHT35;42558;52.388;13.390;2023-01-23T02:57:17;1.62;90.69
57709;SHT35;42558;52.388;13.390;2023-01-23T02:59:47;1.65;90.70
57709;SHT35;42558;52.388;13.390;2023-01-23T03:02:36;1.65;90.69
57709;SHT35;42558;52.388;13.390;2023-01-23T03:05:07;1.62;90.66
57709;SHT35;42558;52.388;13.390;2023-01-23T03:07:36;1.65;90.70
57709;SHT35;42558;52.388;13.390;2023-01-23T03:10:04;1.67;90.70
57709;SHT35;42558;52.388;13.390;2023-01-23T03:12:35;1.66;90.69
57709;SHT35;42558;52.388;13.390;2023-01-23T03:15:11;1.65;90.63
57709;SHT35;42558;52.388;13.390;2023-01-23T03:17:41;1.65;90.68
57709;SHT35;42558;52.388;13.390;2023-01-23T03:20:11;1.64;90.69
57709;SHT35;42558;52.388;13.390;2023-01-23T03:22:41;1.66;90.70
57709;SHT35;42558;52.388;13.390;2023-01-23T03:25:11;1.65;90.70
57709;SHT35;42558;52.388;13.390;2023-01-23T03:27:41;1.65;90.73
57709;SHT35;42558;52.388;13.390;2023-01-23T03:30:11;1.63;90.75
57709;SHT35;42558;52.388;13.390;2023-01-23T03:32:44;1.61;90.73
57709;SHT35;42558;52.388;13.390;2023-01-23T03:35:15;1.62;90.70
57709;SHT35;42558;52.388;13.390;2023-01-23T03:37:46;1.66;90.76
57709;SHT35;42558;52.388;13.390;2023-01-23T03:40:18;1.70;90.72
57709;SHT35;42558;52.388;13.390;2023-01-23T03:43:10;1.69;90.62
57709;SHT35;42558;52.388;13.390;2023-01-23T03:45:40;1.69;90.63
57709;SHT35;42558;52.388;13.390;2023-01-23T03:48:10;1.70;90.56
57709;SHT35;42558;52.388;13.390;2023-01-23T03:50:40;1.68;90.53
57709;SHT35;42558;52.388;13.390;2023-01-23T03:53:10;1.67;90.59
57709;SHT35;42558;52.388;13.390;2023-01-23T03:55:40;1.72;90.60
57709;SHT35;42558;52.388;13.390;2023-01-23T03:58:09;1.75;90.60
57709;SHT35;42558;52.388;13.390;2023-01-23T04:00:39;1.71;90.49
57709;SHT35;42558;52.388;13.390;2023-01-23T04:03:09;1.69;90.43
57709;SHT35;42558;52.388;13.390;2023-01-23T04:05:39;1.71;90.40
57709;SHT35;42558;52.388;13.390;2023-01-23T04:08:09;1.70;90.40
57709;SHT35;42558;52.388;13.390;2023-01-23T04:10:39;1.68;90.37
57709;SHT35;42558;52.388;13.390;2023-01-23T04:13:09;1.66;90.38
57709;SHT35;42558;52.388;13.390;2023-01-23T04:15:38;1.65;90.40
57709;SHT35;42558;52.388;13.390;2023-01-23T04:18:08;1.67;90.40
57709;SHT35;42558;52.388;13.390;2023-01-23T04:20:38;1.71;90.40
57709;SHT35;42558;52.388;13.390;2023-01-23T04:23:08;1.68;90.34
57709;SHT35;42558;52.388;13.390;2023-01-23T04:25:38;1.69;90.37
57709;SHT35;42558;52.388;13.390;2023-01-23T04:28:08;1.74;90.40
57709;SHT35;42558;52.388;13.390;2023-01-23T04:30:37;1.75;90.33
57709;SHT35;42558;52.388;13.390;2023-01-23T04:33:07;1.74;90.26
57709;SHT35;42558;52.388;13.390;2023-01-23T04:35:37;1.75;90.23
57709;SHT35;42558;52.388;13.390;2023-01-23T04:38:07;1.74;90.18
57709;SHT35;42558;52.388;13.390;2023-01-23T04:40:37;1.72;90.15
57709;SHT35;42558;52.388;13.390;2023-01-23T04:43:07;1.74;90.20
57709;SHT35;42558;52.388;13.390;2023-01-23T04:45:38;1.73;90.18
57709;SHT35;42558;52.388;13.390;2023-01-23T04:48:08;1.68;90.10
57709;SHT35;42558;52.388;13.390;2023-01-23T04:50:39;1.70;90.21
57709;SHT35;42558;52.388;13.390;2023-01-23T04:53:09;1.70;90.16
57709;SHT35;42558;52.388;13.390;2023-01-23T04:55:39;1.72;90.18
57709;SHT35;42558;52.388;13.390;2023-01-23T04:58:10;1.70;90.17
57709;SHT35;42558;52.388;13.390;2023-01-23T05:00:39;1.72;90.19
57709;SHT35;42558;52.388;13.390;2023-01-23T05:03:09;1.74;90.20
57709;SHT35;42558;52.388;13.390;2023-01-23T05:05:39;1.72;90.15
57709;SHT35;42558;52.388;13.390;2023-01-23T05:08:11;1.73;90.17
57709;SHT35;42558;52.388;13.390;2023-01-23T05:10:41;1.72;90.12
57709;SHT35;42558;52.388;13.390;2023-01-23T05:13:11;1.70;90.09
57709;SHT35;42558;52.388;13.390;2023-01-23T05:15:41;1.63;90.03
57709;SHT35;42558;52.388;13.390;2023-01-23T05:18:11;1.61;90.22
57709;SHT35;42558;52.388;13.390;2023-01-23T05:20:40;1.63;90.30
57709;SHT35;42558;52.388;13.390;2023-01-23T05:23:10;1.61;90.27
57709;SHT35;42558;52.388;13.390;2023-01-23T05:25:40;1.60;90.21
57709;SHT35;42558;52.388;13.390;2023-01-23T05:28:10;1.63;90.29
57709;SHT35;42558;52.388;13.390;2023-01-23T05:30:40;1.56;90.29
57709;SHT35;42558;52.388;13.390;2023-01-23T05:33:10;1.57;90.37
57709;SHT35;42558;52.388;13.390;2023-01-23T05:35:40;1.59;90.36
57709;SHT35;42558;52.388;13.390;2023-01-23T05:38:12;1.60;90.37
57709;SHT35;42558;52.388;13.390;2023-01-23T05:40:42;1.60;90.33
57709;SHT35;42558;52.388;13.390;2023-01-23T05:43:13;1.60;90.32
57709;SHT35;42558;52.388;13.390;2023-01-23T05:45:43;1.53;90.36
57709;SHT35;42558;52.388;13.390;2023-01-23T05:48:13;1.55;90.45
57709;SHT35;42558;52.388;13.390;2023-01-23T05:50:43;1.57;90.40
57709;SHT35;42558;52.388;13.390;2023-01-23T05:53:12;1.57;90.40
57709;SHT35;42558;52.388;13.390;2023-01-23T05:55:40;1.56;90.40
57709;SHT35;42558;52.388;13.390;2023-01-23T05:58:09;1.56;90.34
57709;SHT35;42558;52.388;13.390;2023-01-23T06:00:37;1.57;90.32
57709;SHT35;42558;52.388;13.390;2023-01-23T06:03:05;1.59;90.28
57709;SHT35;42558;52.388;13.390;2023-01-23T06:05:34;1.55;90.22
57709;SHT35;42558;52.388;13.390;2023-01-23T06:08:02;1.54;90.30
57709;SHT35;42558;52.388;13.390;2023-01-23T06:10:31;1.56;90.30
57709;SHT35;42558;52.388;13.390;2023-01-23T06:12:59;1.55;90.20
57709;SHT35;42558;52.388;13.390;2023-01-23T06:15:28;1.55;90.21
57709;SHT35;42558;52.388;13.390;2023-01-23T06:17:56;1.56;90.20
57709;SHT35;42558;52.388;13.390;2023-01-23T06:20:25;1.58;90.21
57709;SHT35;42558;52.388;13.390;2023-01-23T06:22:53;1.55;90.14
57709;SHT35;42558;52.388;13.390;2023-01-23T06:25:21;1.55;90.17
57709;SHT35;42558;52.388;13.390;2023-01-23T06:27:50;1.55;90.23
57709;SHT35;42558;52.388;13.390;2023-01-23T06:30:21;1.58;90.25
57709;SHT35;42558;52.388;13.390;2023-01-23T06:32:50;1.52;90.11
57709;SHT35;42558;52.388;13.390;2023-01-23T06:35:19;1.55;90.18
57709;SHT35;42558;52.388;13.390;2023-01-23T06:37:47;1.54;90.07
57709;SHT35;42558;52.388;13.390;2023-01-23T06:40:16;1.53;90.05
57709;SHT35;42558;52.388;13.390;2023-01-23T06:42:44;1.57;90.09
57709;SHT35;42558;52.388;13.390;2023-01-23T06:45:12;1.59;90.10
57709;SHT35;42558;52.388;13.390;2023-01-23T06:47:41;1.60;90.01
57709;SHT35;42558;52.388;13.390;2023-01-23T06:50:09;1.54;89.86
57709;SHT35;42558;52.388;13.390;2023-01-23T06:52:38;1.53;89.82
57709;SHT35;42558;52.388;13.390;2023-01-23T06:55:06;1.52;89.89
57709;SHT35;42558;52.388;13.390;2023-01-23T06:57:35;1.53;89.88
57709;SHT35;42558;52.388;13.390;2023-01-23T07:00:03;1.55;89.90
57709;SHT35;42558;52.388;13.390;2023-01-23T07:02:32;1.57;89.90
57709;SHT35;42558;52.388;13.390;2023-01-23T07:05:00;1.59;89.84
57709;SHT35;42558;52.388;13.390;2023-01-23T07:07:28;1.57;89.81
57709;SHT35;42558;52.388;13.390;2023-01-23T07:09:57;1.56;89.78
57709;SHT35;42558;52.388;13.390;2023-01-23T07:12:25;1.55;89.78
57709;SHT35;42558;52.388;13.390;2023-01-23T07:14:54;1.55;89.77
57709;SHT35;42558;52.388;13.390;2023-01-23T07:17:22;1.55;89.77
57709;SHT35;42558;52.388;13.390;2023-01-23T07:19:51;1.54;89.75
57709;SHT35;42558;52.388;13.390;2023-01-23T07:22:19;1.51;89.74
57709;SHT35;42558;52.388;13.390;2023-01-23T07:24:51;1.53;89.84
57709;SHT35;42558;52.388;13.390;2023-01-23T07:27:21;1.55;89.81
57709;SHT35;42558;52.388;13.390;2023-01-23T07:29:51;1.55;89.71
57709;SHT35;42558;52.388;13.390;2023-01-23T07:32:21;1.60;89.80
57709;SHT35;42558;52.388;13.390;2023-01-23T07:34:51;1.62;89.78
57709;SHT35;42558;52.388;13.390;2023-01-23T07:37:21;1.55;89.56
57709;SHT35;42558;52.388;13.390;2023-01-23T07:39:51;1.62;89.69
57709;SHT35;42558;52.388;13.390;2023-01-23T07:42:21;1.63;89.56
57709;SHT35;42558;52.388;13.390;2023-01-23T07:44:52;1.65;89.58
57709;SHT35;42558;52.388;13.390;2023-01-23T07:47:21;1.66;89.50
57709;SHT35;42558;52.388;13.390;2023-01-23T07:49:51;1.66;89.42
57709;SHT35;42558;52.388;13.390;2023-01-23T07:52:21;1.71;89.50
57709;SHT35;42558;52.388;13.390;2023-01-23T07:54:52;1.71;89.41
57709;SHT35;42558;52.388;13.390;2023-01-23T07:57:22;1.68;89.33
57709;SHT35;42558;52.388;13.390;2023-01-23T07:59:52;1.72;89.39
57709;SHT35;42558;52.388;13.390;2023-01-23T08:02:22;1.72;89.29
57709;SHT35;42558;52.388;13.390;2023-01-23T08:04:51;1.74;89.30
57709;SHT35;42558;52.388;13.390;2023-01-23T08:07:21;1.76;89.27
57709;SHT35;42558;52.388;13.390;2023-01-23T08:09:52;1.70;89.23
57709;SHT35;42558;52.388;13.390;2023-01-23T08:12:22;1.70;89.30
57709;SHT35;42558;52.388;13.390;2023-01-23T08:14:52;1.73;89.28
57709;SHT35;42558;52.388;13.390;2023-01-23T08:17:21;1.71;89.19
57709;SHT35;42558;52.388;13.390;2023-01-23T08:19:51;1.70;89.16
57709;SHT35;42558;52.388;13.390;2023-01-23T08:22:21;1.65;89.03
57709;SHT35;42558;52.388;13.390;2023-01-23T08:24:51;1.66;89.04
57709;SHT35;42558;52.388;13.390;2023-01-23T08:27:21;1.60;89.05
57709;SHT35;42558;52.388;13.390;2023-01-23T08:29:49;1.64;89.03
57709;SHT35;42558;52.388;13.390;2023-01-23T08:32:18;1.70;89.01
57709;SHT35;42558;52.388;13.390;2023-01-23T08:34:46;1.63;89.00
57709;SHT35;42558;52.388;13.390;2023-01-23T08:37:15;1.64;89.18
57709;SHT35;42558;52.388;13.390;2023-01-23T08:39:43;1.63;89.09
57709;SHT35;42558;52.388;13.390;2023-01-23T08:42:12;1.67;89.10
57709;SHT35;42558;52.388;13.390;2023-01-23T08:44:46;1.66;88.98
57709;SHT35;42558;52.388;13.390;2023-01-23T08:47:16;1.65;89.15
57709;SHT35;42558;52.388;13.390;2023-01-23T08:49:46;1.64;89.16
57709;SHT35;42558;52.388;13.390;2023-01-23T08:52:16;1.58;89.28
57709;SHT35;42558;52.388;13.390;2023-01-23T08:54:46;1.61;89.35
57709;SHT35;42558;52.388;13.390;2023-01-23T08:57:15;1.67;89.35
57709;SHT35;42558;52.388;13.390;2023-01-23T08:59:45;1.70;89.29
57709;SHT35;42558;52.388;13.390;2023-01-23T09:02:15;1.79;89.31
57709;SHT35;42558;52.388;13.390;2023-01-23T09:04:45;1.85;89.17
57709;SHT35;42558;52.388;13.390;2023-01-23T09:07:15;1.76;88.86
57709;SHT35;42558;52.388;13.390;2023-01-23T09:09:45;1.75;89.04
57709;SHT35;42558;52.388;13.390;2023-01-23T09:12:15;1.72;88.95
57709;SHT35;42558;52.388;13.390;2023-01-23T09:14:45;1.74;89.09
57709;SHT35;42558;52.388;13.390;2023-01-23T09:17:15;1.75;89.01
57709;SHT35;42558;52.388;13.390;2023-01-23T09:19:45;1.77;88.98
57709;SHT35;42558;52.388;13.390;2023-01-23T09:22:17;1.77;88.99
57709;SHT35;42558;52.388;13.390;2023-01-23T09:24:48;1.78;89.05
57709;SHT35;42558;52.388;13.390;2023-01-23T09:27:18;1.89;89.09
57709;SHT35;42558;52.388;13.390;2023-01-23T09:29:49;1.88;88.87
57709;SHT35;42558;52.388;13.390;2023-01-23T09:32:19;1.83;88.80
57709;SHT35;42558;52.388;13.390;2023-01-23T09:34:49;1.86;88.83
57709;SHT35;42558;52.388;13.390;2023-01-23T09:37:19;1.75;88.72
57709;SHT35;42558;52.388;13.390;2023-01-23T09:39:49;1.73;88.86
57709;SHT35;42558;52.388;13.390;2023-01-23T09:42:20;1.77;88.89
57709;SHT35;42558;52.388;13.390;2023-01-23T09:45:03;1.78;88.80
57709;SHT35;42558;52.388;13.390;2023-01-23T09:47:38;1.82;88.75
57709;SHT35;42558;52.388;13.390;2023-01-23T09:50:35;1.79;88.74
57709;SHT35;42558;52.388;13.390;2023-01-23T09:53:14;1.89;88.87
57709;SHT35;42558;52.388;13.390;2023-01-23T09:56:05;1.88;88.54
57709;SHT35;42558;52.388;13.390;2023-01-23T09:59:16;1.93;88.58
57709;SHT35;42558;52.388;13.390;2023-01-23T10:02:21;1.98;88.27
57709;SHT35;42558;52.388;13.390;2023-01-23T10:04:55;1.94;88.09
57709;SHT35;42558;52.388;13.390;2023-01-23T10:13:17;1.99;88.07
57709;SHT35;42558;52.388;13.390;2023-01-23T10:15:57;1.89;87.88
57709;SHT35;42558;52.388;13.390;2023-01-23T10:21:43;2.09;88.40
57709;SHT35;42558;52.388;13.390;2023-01-23T10:27:39;2.19;87.90
57709;SHT35;42558;52.388;13.390;2023-01-23T10:30:48;2.15;87.64
57709;SHT35;42558;52.388;13.390;2023-01-23T10:33:13;2.13;87.64
57709;SHT35;42558;52.388;13.390;2023-01-23T10:35:49;2.14;87.65
57709;SHT35;42558;52.388;13.390;2023-01-23T10:41:10;2.14;87.76
57709;SHT35;42558;52.388;13.390;2023-01-23T10:43:42;2.20;87.70
57709;SHT35;42558;52.388;13.390;2023-01-23T10:46:38;2.21;87.51
57709;SHT35;42558;52.388;13.390;2023-01-23T10:49:36;2.27;87.61
57709;SHT35;42558;52.388;13.390;2023-01-23T10:52:35;2.35;87.60
57709;SHT35;42558;52.388;13.390;2023-01-23T10:57:52;2.33;87.06
57709;SHT35;42558;52.388;13.390;2023-01-23T11:05:52;2.30;87.34
57709;SHT35;42558;52.388;13.390;2023-01-23T11:08:30;2.38;87.32
57709;SHT35;42558;52.388;13.390;2023-01-23T11:13:45;2.29;86.92
57709;SHT35;42558;52.388;13.390;2023-01-23T11:16:19;2.33;87.01
57709;SHT35;42558;52.388;13.390;2023-01-23T11:18:58;2.40;87.06
57709;SHT35;42558;52.388;13.390;2023-01-23T11:21:54;2.37;86.65
57709;SHT35;42558;52.388;13.390;2023-01-23T11:24:33;2.40;86.60
57709;SHT35;42558;52.388;13.390;2023-01-23T11:27:17;2.39;86.26
57709;SHT35;42558;52.388;13.390;2023-01-23T11:29:57;2.33;86.37
57709;SHT35;42558;52.388;13.390;2023-01-23T11:32:50;2.37;86.44
57709;SHT35;42558;52.388;13.390;2023-01-23T11:35:40;2.36;86.38
57709;SHT35;42558;52.388;13.390;2023-01-23T11:38:26;2.38;86.27
57709;SHT35;42558;52.388;13.390;2023-01-23T11:41:22;2.36;86.46
57709;SHT35;42558;52.388;13.390;2023-01-23T11:44:05;2.46;86.52
57709;SHT35;42558;52.388;13.390;2023-01-23T11:46:50;2.46;86.17
57709;SHT35;42558;52.388;13.390;2023-01-23T11:56:16;2.39;85.45
57709;SHT35;42558;52.388;13.390;2023-01-23T11:59:15;2.38;85.55
57709;SHT35;42558;52.388;13.390;2023-01-23T12:11:14;2.55;85.42
57709;SHT35;42558;52.388;13.390;2023-01-23T12:23:19;2.56;84.90
57709;SHT35;42558;52.388;13.390;2023-01-23T12:26:20;2.59;84.93
57709;SHT35;42558;52.388;13.390;2023-01-23T12:31:58;2.61;84.90
57709;SHT35;42558;52.388;13.390;2023-01-23T12:40:52;2.73;84.61
57709;SHT35;42558;52.388;13.390;2023-01-23T12:47:08;2.82;84.66
57709;SHT35;42558;52.388;13.390;2023-01-23T12:50:02;2.75;84.04
57709;SHT35;42558;52.388;13.390;2023-01-23T12:55:23;2.68;84.05
57709;SHT35;42558;52.388;13.390;2023-01-23T12:58:03;2.70;84.01
57709;SHT35;42558;52.388;13.390;2023-01-23T13:03:38;2.65;83.66
57709;SHT35;42558;52.388;13.390;2023-01-23T13:06:32;2.70;83.70
57709;SHT35;42558;52.388;13.390;2023-01-23T13:12:30;2.58;83.75
57709;SHT35;42558;52.388;13.390;2023-01-23T13:18:02;2.75;83.64
57709;SHT35;42558;52.388;13.390;2023-01-23T13:20:34;2.79;83.51
57709;SHT35;42558;52.388;13.390;2023-01-23T13:23:40;2.71;82.98
57709;SHT35;42558;52.388;13.390;2023-01-23T13:28:52;2.68;83.12
57709;SHT35;42558;52.388;13.390;2023-01-23T13:36:46;2.63;82.88
57709;SHT35;42558;52.388;13.390;2023-01-23T13:39:22;2.67;82.92
57709;SHT35;42558;52.388;13.390;2023-01-23T13:45:41;2.68;82.58
57709;SHT35;42558;52.388;13.390;2023-01-23T13:47:54;2.63;82.77
57709;SHT35;42558;52.388;13.390;2023-01-23T13:51:23;2.61;82.67
57709;SHT35;42558;52.388;13.390;2023-01-23T13:54:12;2.56;82.69
57709;SHT35;42558;52.388;13.390;2023-01-23T13:57:21;2.59;82.75
57709;SHT35;42558;52.388;13.390;2023-01-23T14:00:05;2.62;82.94
57709;SHT35;42558;52.388;13.390;2023-01-23T14:03:08;2.60;82.55
57709;SHT35;42558;52.388;13.390;2023-01-23T14:06:30;2.59;82.38
57709;SHT35;42558;52.388;13.390;2023-01-23T14:09:21;2.64;82.74
57709;SHT35;42558;52.388;13.390;2023-01-23T14:12:11;2.67;82.74
57709;SHT35;42558;52.388;13.390;2023-01-23T14:15:00;2.67;82.56
57709;SHT35;42558;52.388;13.390;2023-01-23T14:18:02;2.62;82.47
57709;SHT35;42558;52.388;13.390;2023-01-23T14:20:46;2.67;82.73
57709;SHT35;42558;52.388;13.390;2023-01-23T14:26:12;2.58;82.40
57709;SHT35;42558;52.388;13.390;2023-01-23T14:31:53;2.51;82.67
57709;SHT35;42558;52.388;13.390;2023-01-23T14:34:24;2.59;82.48
57709;SHT35;42558;52.388;13.390;2023-01-23T14:37:04;2.59;82.28
57709;SHT35;42558;52.388;13.390;2023-01-23T14:39:42;2.55;82.28
57709;SHT35;42558;52.388;13.390;2023-01-23T14:44:55;2.53;82.21
57709;SHT35;42558;52.388;13.390;2023-01-23T14:47:31;2.55;82.03
57709;SHT35;42558;52.388;13.390;2023-01-23T14:50:08;2.54;82.10
57709;SHT35;42558;52.388;13.390;2023-01-23T14:52:44;2.52;82.23
57709;SHT35;42558;52.388;13.390;2023-01-23T14:55:22;2.51;82.29
57709;SHT35;42558;52.388;13.390;2023-01-23T14:57:58;2.52;82.23
57709;SHT35;42558;52.388;13.390;2023-01-23T15:00:33;2.51;82.42
57709;SHT35;42558;52.388;13.390;2023-01-23T15:03:04;2.50;82.37
57709;SHT35;42558;52.388;13.390;2023-01-23T15:05:35;2.53;82.40
57709;SHT35;42558;52.388;13.390;2023-01-23T15:10:52;2.56;82.71
57709;SHT35;42558;52.388;13.390;2023-01-23T15:13:28;2.52;82.53
57709;SHT35;42558;52.388;13.390;2023-01-23T15:16:13;2.49;82.58
57709;SHT35;42558;52.388;13.390;2023-01-23T15:18:52;2.43;82.53
57709;SHT35;42558;52.388;13.390;2023-01-23T15:21:46;2.44;82.70
57709;SHT35;42558;52.388;13.390;2023-01-23T15:24:18;2.46;82.70
57709;SHT35;42558;52.388;13.390;2023-01-23T15:26:57;2.48;82.90
57709;SHT35;42558;52.388;13.390;2023-01-23T15:29:34;2.41;82.85
57709;SHT35;42558;52.388;13.390;2023-01-23T15:32:01;2.39;82.90
57709;SHT35;42558;52.388;13.390;2023-01-23T15:34:32;2.35;82.79
57709;SHT35;42558;52.388;13.390;2023-01-23T15:44:45;2.33;82.67
57709;SHT35;42558;52.388;13.390;2023-01-23T15:47:14;2.31;82.74
57709;SHT35;42558;52.388;13.390;2023-01-23T15:49:42;2.30;82.89
57709;SHT35;42558;52.388;13.390;2023-01-23T15:52:24;2.30;83.16
57709;SHT35;42558;52.388;13.390;2023-01-23T15:55:12;2.31;83.28
57709;SHT35;42558;52.388;13.390;2023-01-23T15:57:43;2.31;83.18
57709;SHT35;42558;52.388;13.390;2023-01-23T16:00:17;2.29;83.35
57709;SHT35;42558;52.388;13.390;2023-01-23T16:02:48;2.27;83.50
57709;SHT35;42558;52.388;13.390;2023-01-23T16:05:26;2.23;83.54
57709;SHT35;42558;52.388;13.390;2023-01-23T16:08:00;2.23;83.60
57709;SHT35;42558;52.388;13.390;2023-01-23T16:10:35;2.19;83.70
57709;SHT35;42558;52.388;13.390;2023-01-23T16:13:08;2.14;83.72
57709;SHT35;42558;52.388;13.390;2023-01-23T16:15:42;2.13;83.79
57709;SHT35;42558;52.388;13.390;2023-01-23T16:18:12;2.13;83.87
57709;SHT35;42558;52.388;13.390;2023-01-23T16:20:43;2.17;83.96
57709;SHT35;42558;52.388;13.390;2023-01-23T16:23:16;2.14;83.93
57709;SHT35;42558;52.388;13.390;2023-01-23T16:25:50;2.10;84.12
57709;SHT35;42558;52.388;13.390;2023-01-23T16:28:22;2.14;84.20
57709;SHT35;42558;52.388;13.390;2023-01-23T16:30:55;2.15;83.86
57709;SHT35;42558;52.388;13.390;2023-01-23T16:33:24;2.14;83.86
57709;SHT35;42558;52.388;13.390;2023-01-23T16:35:54;2.16;83.90
57709;SHT35;42558;52.388;13.390;2023-01-23T16:38:26;2.13;84.05
57709;SHT35;42558;52.388;13.390;2023-01-23T16:40:57;2.09;84.15
57709;SHT35;42558;52.388;13.390;2023-01-23T16:43:28;2.07;84.19
57709;SHT35;42558;52.388;13.390;2023-01-23T16:45:59;2.08;84.11
57709;SHT35;42558;52.388;13.390;2023-01-23T16:48:30;2.05;84.05
57709;SHT35;42558;52.388;13.390;2023-01-23T16:51:00;2.05;84.19
57709;SHT35;42558;52.388;13.390;2023-01-23T16:53:43;2.03;84.27
57709;SHT35;42558;52.388;13.390;2023-01-23T16:56:33;2.03;84.15
57709;SHT35;42558;52.388;13.390;2023-01-23T16:59:19;2.06;84.09
57709;SHT35;42558;52.388;13.390;2023-01-23T17:02:19;2.06;84.15
57709;SHT35;42558;52.388;13.390;2023-01-23T17:04:54;2.04;84.35
57709;SHT35;42558;52.388;13.390;2023-01-23T17:07:24;2.05;84.54
57709;SHT35;42558;52.388;13.390;2023-01-23T17:09:53;2.07;84.62
57709;SHT35;42558;52.388;13.390;2023-01-23T17:12:24;2.07;84.71
57709;SHT35;42558;52.388;13.390;2023-01-23T17:15:00;2.05;84.89
57709;SHT35;42558;52.388;13.390;2023-01-23T17:17:33;2.02;84.98
57709;SHT35;42558;52.388;13.390;2023-01-23T17:20:04;2.01;84.99
57709;SHT35;42558;52.388;13.390;2023-01-23T17:22:36;2.04;85.09
57709;SHT35;42558;52.388;13.390;2023-01-23T17:25:24;2.06;85.09
57709;SHT35;42558;52.388;13.390;2023-01-23T17:27:54;2.06;85.06
57709;SHT35;42558;52.388;13.390;2023-01-23T17:30:40;2.04;85.04
57709;SHT35;42558;52.388;13.390;2023-01-23T17:33:23;2.01;85.01
57709;SHT35;42558;52.388;13.390;2023-01-23T17:35:59;1.98;85.07
57709;SHT35;42558;52.388;13.390;2023-01-23T17:38:30;1.97;85.13
57709;SHT35;42558;52.388;13.390;2023-01-23T17:40:58;1.97;85.20
57709;SHT35;42558;52.388;13.390;2023-01-23T17:43:26;1.95;85.23
57709;SHT35;42558;52.388;13.390;2023-01-23T17:45:55;1.95;85.27
57709;SHT35;42558;52.388;13.390;2023-01-23T17:48:28;1.94;85.23
57709;SHT35;42558;52.388;13.390;2023-01-23T17:50:58;1.92;85.13
57709;SHT35;42558;52.388;13.390;2023-01-23T17:53:26;1.91;85.23
57709;SHT35;42558;52.388;13.390;2023-01-23T17:55:58;1.92;85.20
57709;SHT35;42558;52.388;13.390;2023-01-23T17:58:26;1.89;85.07
57709;SHT35;42558;52.388;13.390;2023-01-23T18:00:54;1.89;85.24
57709;SHT35;42558;52.388;13.390;2023-01-23T18:03:23;1.90;85.21
57709;SHT35;42558;52.388;13.390;2023-01-23T18:05:51;1.86;85.27
57709;SHT35;42558;52.388;13.390;2023-01-23T18:08:20;1.88;85.21